sensor_id;sensor_type;location;lat;lon;timestamp;pressure;altitude;pressure_sealevel;temperature;humidity
7768;BME280;3928;42.626;23.382;2023-04-02T00:01:53;93296.97;;;11.71;53.43
7768;BME280;3928;42.626;23.382;2023-04-02T00:04:21;93287.56;;;11.49;53.41
7768;BME280;3928;42.626;23.382;2023-04-02T00:07:23;93292.91;;;11.42;53.82
7768;BME280;3928;42.626;23.382;2023-04-02T00:09:56;93219.75;;;11.06;53.64
7768;BME280;3928;42.626;23.382;2023-04-02T00:12:22;93291.53;;;11.32;53.91
7768;BME280;3928;42.626;23.382;2023-04-02T00:14:52;93301.63;;;11.38;53.55
7768;BME280;3928;42.626;23.382;2023-04-02T00:17:22;93292.63;;;11.27;53.59
7768;BME280;3928;42.626;23.382;2023-04-02T00:19:53;93272.59;;;11.11;54.47
7768;BME280;3928;42.626;23.382;2023-04-02T00:22:28;93277.53;;;11.41;53.37
7768;BME280;3928;42.626;23.382;2023-04-02T00:24:56;93291.88;;;11.47;53.71
7768;BME280;3928;42.626;23.382;2023-04-02T00:27:26;93275.13;;;11.60;53.50
7768;BME280;3928;42.626;23.382;2023-04-02T00:29:54;93267.97;;;11.91;52.39
7768;BME280;3928;42.626;23.382;2023-04-02T00:32:24;93271.47;;;12.12;51.77
7768;BME280;3928;42.626;23.382;2023-04-02T00:34:52;93268.16;;;11.87;51.55
7768;BME280;3928;42.626;23.382;2023-04-02T00:37:21;93261.16;;;11.90;51.82
7768;BME280;3928;42.626;23.382;2023-04-02T00:39:55;93263.97;;;11.84;51.43
7768;BME280;3928;42.626;23.382;2023-04-02T00:42:24;93263.53;;;11.95;51.56
7768;BME280;3928;42.626;23.382;2023-04-02T00:44:52;93261.66;;;12.00;51.08
7768;BME280;3928;42.626;23.382;2023-04-02T00:47:21;93266.88;;;12.19;50.57
7768;BME280;3928;42.626;23.382;2023-04-02T00:49:55;93265.69;;;12.27;50.84
7768;BME280;3928;42.626;23.382;2023-04-02T00:52:26;93267.91;;;12.37;49.95
7768;BME280;3928;42.626;23.382;2023-04-02T00:55:02;93248.59;;;12.26;49.87
7768;BME280;3928;42.626;23.382;2023-04-02T00:57:30;93273.81;;;12.39;49.44
7768;BME280;3928;42.626;23.382;2023-04-02T01:00:00;93262.34;;;12.25;50.13
7768;BME280;3928;42.626;23.382;2023-04-02T01:02:33;93268.81;;;12.36;49.77
7768;BME280;3928;42.626;23.382;2023-04-02T01:05:19;93263.31;;;12.45;49.61
7768;BME280;3928;42.626;23.382;2023-04-02T01:07:56;93255.19;;;12.54;49.45
7768;BME280;3928;42.626;23.382;2023-04-02T01:10:39;93260.72;;;12.45;49.97
7768;BME280;3928;42.626;23.382;2023-04-02T01:13:15;93274.91;;;12.33;49.43
7768;BME280;3928;42.626;23.382;2023-04-02T01:15:50;93245.13;;;12.27;49.29
7768;BME280;3928;42.626;23.382;2023-04-02T01:18:27;93254.91;;;12.40;48.77
7768;BME280;3928;42.626;23.382;2023-04-02T01:21:24;93279.06;;;12.57;48.62
7768;BME280;3928;42.626;23.382;2023-04-02T01:24:01;93212.59;;;12.26;51.69
7768;BME280;3928;42.626;23.382;2023-04-02T01:26:42;93283.50;;;12.54;54.93
7768;BME280;3928;42.626;23.382;2023-04-02T01:29:15;93259.50;;;12.33;55.83
7768;BME280;3928;42.626;23.382;2023-04-02T01:31:45;93286.75;;;12.37;56.97
7768;BME280;3928;42.626;23.382;2023-04-02T01:34:15;93294.69;;;12.31;57.52
7768;BME280;3928;42.626;23.382;2023-04-02T01:36:53;93287.09;;;12.28;57.67
7768;BME280;3928;42.626;23.382;2023-04-02T01:39:34;93287.91;;;12.08;58.81
7768;BME280;3928;42.626;23.382;2023-04-02T01:42:08;93292.50;;;12.00;59.23
7768;BME280;3928;42.626;23.382;2023-04-02T01:44:42;93278.13;;;11.94;59.60
7768;BME280;3928;42.626;23.382;2023-04-02T01:47:12;93281.59;;;11.93;59.59
7768;BME280;3928;42.626;23.382;2023-04-02T01:49:41;93260.75;;;11.78;59.16
7768;BME280;3928;42.626;23.382;2023-04-02T01:52:12;93094.88;;;10.81;58.85
7768;BME280;3928;42.626;23.382;2023-04-02T01:54:41;93278.25;;;11.91;59.04
7768;BME280;3928;42.626;23.382;2023-04-02T01:57:08;93277.75;;;11.82;60.46
7768;BME280;3928;42.626;23.382;2023-04-02T01:59:35;93277.91;;;11.77;60.83
7768;BME280;3928;42.626;23.382;2023-04-02T02:02:04;93269.00;;;11.64;61.27
7768;BME280;3928;42.626;23.382;2023-04-02T02:04:32;93280.88;;;11.66;61.71
7768;BME280;3928;42.626;23.382;2023-04-02T02:07:00;93277.75;;;11.58;62.85
7768;BME280;3928;42.626;23.382;2023-04-02T02:09:29;93272.06;;;11.50;62.94
7768;BME280;3928;42.626;23.382;2023-04-02T02:11:59;93270.50;;;11.46;62.78
7768;BME280;3928;42.626;23.382;2023-04-02T02:14:28;93281.53;;;11.48;63.17
7768;BME280;3928;42.626;23.382;2023-04-02T02:16:57;93289.38;;;11.45;63.56
7768;BME280;3928;42.626;23.382;2023-04-02T02:19:31;93281.59;;;11.47;63.78
7768;BME280;3928;42.626;23.382;2023-04-02T02:22:06;93293.69;;;11.45;63.59
7768;BME280;3928;42.626;23.382;2023-04-02T02:24:35;93278.56;;;11.37;64.10
7768;BME280;3928;42.626;23.382;2023-04-02T02:27:13;93284.91;;;11.27;64.93
7768;BME280;3928;42.626;23.382;2023-04-02T02:29:51;93266.03;;;11.04;65.22
7768;BME280;3928;42.626;23.382;2023-04-02T02:32:21;93166.41;;;10.42;65.73
7768;BME280;3928;42.626;23.382;2023-04-02T02:34:55;93284.50;;;10.89;66.58
7768;BME280;3928;42.626;23.382;2023-04-02T02:37:29;93289.31;;;10.98;66.99
7768;BME280;3928;42.626;23.382;2023-04-02T02:39:58;93287.66;;;10.97;66.63
7768;BME280;3928;42.626;23.382;2023-04-02T02:42:30;93278.28;;;10.96;66.65
7768;BME280;3928;42.626;23.382;2023-04-02T02:44:59;93275.59;;;10.99;67.02
7768;BME280;3928;42.626;23.382;2023-04-02T02:47:28;93271.72;;;10.88;66.95
7768;BME280;3928;42.626;23.382;2023-04-02T02:50:00;93278.91;;;11.03;67.08
7768;BME280;3928;42.626;23.382;2023-04-02T02:52:31;93278.97;;;11.01;66.95
7768;BME280;3928;42.626;23.382;2023-04-02T02:55:00;93282.88;;;11.11;66.76
7768;BME280;3928;42.626;23.382;2023-04-02T02:57:31;93285.97;;;10.96;67.44
7768;BME280;3928;42.626;23.382;2023-04-02T03:00:01;93263.25;;;10.86;67.38
7768;BME280;3928;42.626;23.382;2023-04-02T03:02:34;93270.22;;;10.82;66.58
7768;BME280;3928;42.626;23.382;2023-04-02T03:05:05;93268.97;;;10.69;67.39
7768;BME280;3928;42.626;23.382;2023-04-02T03:07:33;93268.78;;;10.73;67.74
7768;BME280;3928;42.626;23.382;2023-04-02T03:10:03;93263.81;;;10.69;67.90
7768;BME280;3928;42.626;23.382;2023-04-02T03:12:41;93266.16;;;10.50;68.96
7768;BME280;3928;42.626;23.382;2023-04-02T03:15:21;93295.50;;;10.68;68.20
7768;BME280;3928;42.626;23.382;2023-04-02T03:17:56;93288.66;;;10.68;68.02
7768;BME280;3928;42.626;23.382;2023-04-02T03:20:31;93289.97;;;10.53;68.77
7768;BME280;3928;42.626;23.382;2023-04-02T03:23:04;93291.06;;;10.46;68.92
7768;BME280;3928;42.626;23.382;2023-04-02T03:25:39;93290.78;;;10.56;68.19
7768;BME280;3928;42.626;23.382;2023-04-02T03:28:12;93285.28;;;10.40;69.02
7768;BME280;3928;42.626;23.382;2023-04-02T03:30:44;93299.13;;;10.36;69.81
7768;BME280;3928;42.626;23.382;2023-04-02T03:33:15;93282.16;;;10.32;69.37
7768;BME280;3928;42.626;23.382;2023-04-02T03:35:47;93294.81;;;10.36;69.77
7768;BME280;3928;42.626;23.382;2023-04-02T03:38:21;93295.25;;;10.22;70.25
7768;BME280;3928;42.626;23.382;2023-04-02T03:40:58;93302.56;;;10.35;70.19
7768;BME280;3928;42.626;23.382;2023-04-02T03:43:30;93306.97;;;10.31;69.63
7768;BME280;3928;42.626;23.382;2023-04-02T03:46:04;93310.03;;;10.42;69.77
7768;BME280;3928;42.626;23.382;2023-04-02T03:48:38;93315.84;;;10.47;69.67
7768;BME280;3928;42.626;23.382;2023-04-02T03:51:13;93318.44;;;10.46;68.67
7768;BME280;3928;42.626;23.382;2023-04-02T03:53:44;93316.97;;;10.39;69.24
7768;BME280;3928;42.626;23.382;2023-04-02T03:56:20;93314.22;;;10.45;69.69
7768;BME280;3928;42.626;23.382;2023-04-02T03:58:53;93303.69;;;10.26;68.97
7768;BME280;3928;42.626;23.382;2023-04-02T04:01:25;93310.41;;;10.30;69.18
7768;BME280;3928;42.626;23.382;2023-04-02T04:04:02;93313.34;;;10.16;70.41
7768;BME280;3928;42.626;23.382;2023-04-02T04:06:33;93279.06;;;9.92;70.12
7768;BME280;3928;42.626;23.382;2023-04-02T04:09:07;93302.00;;;9.97;70.82
7768;BME280;3928;42.626;23.382;2023-04-02T04:11:36;93307.66;;;9.79;71.48
7768;BME280;3928;42.626;23.382;2023-04-02T04:14:08;93305.91;;;9.81;71.05
7768;BME280;3928;42.626;23.382;2023-04-02T04:16:41;93238.06;;;9.36;72.28
7768;BME280;3928;42.626;23.382;2023-04-02T04:19:16;93311.50;;;9.93;71.55
7768;BME280;3928;42.626;23.382;2023-04-02T04:21:47;93316.44;;;10.00;71.39
7768;BME280;3928;42.626;23.382;2023-04-02T04:24:16;93318.03;;;10.04;71.12
7768;BME280;3928;42.626;23.382;2023-04-02T04:26:51;93328.22;;;10.07;70.13
7768;BME280;3928;42.626;23.382;2023-04-02T04:29:32;93333.34;;;10.07;70.95
7768;BME280;3928;42.626;23.382;2023-04-02T04:32:14;93311.13;;;9.78;71.33
7768;BME280;3928;42.626;23.382;2023-04-02T04:34:45;93338.63;;;10.01;72.55
7768;BME280;3928;42.626;23.382;2023-04-02T04:37:23;93339.28;;;10.07;71.06
7768;BME280;3928;42.626;23.382;2023-04-02T04:39:55;93342.59;;;10.11;68.95
7768;BME280;3928;42.626;23.382;2023-04-02T04:42:24;93334.91;;;10.11;68.35
7768;BME280;3928;42.626;23.382;2023-04-02T04:44:57;93346.38;;;10.27;68.35
7768;BME280;3928;42.626;23.382;2023-04-02T04:47:28;93337.53;;;10.37;67.40
7768;BME280;3928;42.626;23.382;2023-04-02T04:50:00;93343.75;;;10.30;66.79
7768;BME280;3928;42.626;23.382;2023-04-02T04:52:34;93351.44;;;10.30;67.17
7768;BME280;3928;42.626;23.382;2023-04-02T04:55:03;93358.16;;;10.34;66.30
7768;BME280;3928;42.626;23.382;2023-04-02T04:57:43;93352.91;;;10.37;66.63
7768;BME280;3928;42.626;23.382;2023-04-02T05:00:18;93345.09;;;10.42;67.03
7768;BME280;3928;42.626;23.382;2023-04-02T05:02:52;93341.44;;;10.49;66.47
7768;BME280;3928;42.626;23.382;2023-04-02T05:05:25;93345.53;;;10.54;66.47
7768;BME280;3928;42.626;23.382;2023-04-02T05:07:59;93341.97;;;10.59;66.55
7768;BME280;3928;42.626;23.382;2023-04-02T05:10:33;93347.78;;;10.64;66.77
7768;BME280;3928;42.626;23.382;2023-04-02T05:13:05;93338.41;;;10.63;66.57
7768;BME280;3928;42.626;23.382;2023-04-02T05:15:38;93345.34;;;10.61;66.82
7768;BME280;3928;42.626;23.382;2023-04-02T05:18:17;93327.66;;;10.51;66.71
7768;BME280;3928;42.626;23.382;2023-04-02T05:20:49;93344.94;;;10.73;67.03
7768;BME280;3928;42.626;23.382;2023-04-02T05:23:22;93352.56;;;10.74;66.54
7768;BME280;3928;42.626;23.382;2023-04-02T05:25:54;93350.28;;;10.67;66.60
7768;BME280;3928;42.626;23.382;2023-04-02T05:28:30;93357.34;;;10.32;68.06
7768;BME280;3928;42.626;23.382;2023-04-02T05:31:01;93349.47;;;10.38;68.49
7768;BME280;3928;42.626;23.382;2023-04-02T05:33:32;93360.66;;;10.62;68.25
7768;BME280;3928;42.626;23.382;2023-04-02T05:36:01;93364.22;;;10.84;67.78
7768;BME280;3928;42.626;23.382;2023-04-02T05:38:32;93373.00;;;11.04;66.58
7768;BME280;3928;42.626;23.382;2023-04-02T05:41:02;93230.13;;;10.28;64.85
7768;BME280;3928;42.626;23.382;2023-04-02T05:43:31;93364.66;;;11.22;64.77
7768;BME280;3928;42.626;23.382;2023-04-02T05:46:03;93369.59;;;11.28;64.32
7768;BME280;3928;42.626;23.382;2023-04-02T05:48:36;93376.34;;;11.56;64.58
7768;BME280;3928;42.626;23.382;2023-04-02T05:51:06;93364.66;;;11.72;63.56
7768;BME280;3928;42.626;23.382;2023-04-02T05:53:39;93383.75;;;11.40;63.49
7768;BME280;3928;42.626;23.382;2023-04-02T05:56:10;93383.66;;;11.43;63.76
7768;BME280;3928;42.626;23.382;2023-04-02T05:58:43;93384.59;;;11.40;64.28
7768;BME280;3928;42.626;23.382;2023-04-02T06:01:28;93377.25;;;11.30;63.83
7768;BME280;3928;42.626;23.382;2023-04-02T06:04:02;93384.91;;;11.31;63.74
7768;BME280;3928;42.626;23.382;2023-04-02T06:06:42;93385.13;;;11.50;63.38
7768;BME280;3928;42.626;23.382;2023-04-02T06:09:15;93371.00;;;11.62;64.00
7768;BME280;3928;42.626;23.382;2023-04-02T06:11:45;93397.34;;;12.15;63.28
7768;BME280;3928;42.626;23.382;2023-04-02T06:14:15;93387.88;;;12.39;61.20
7768;BME280;3928;42.626;23.382;2023-04-02T06:16:43;93395.53;;;12.63;59.77
7768;BME280;3928;42.626;23.382;2023-04-02T06:19:15;93388.84;;;12.58;61.13
7768;BME280;3928;42.626;23.382;2023-04-02T06:21:45;93381.88;;;12.82;60.09
7768;BME280;3928;42.626;23.382;2023-04-02T06:24:17;93394.41;;;13.12;59.00
7768;BME280;3928;42.626;23.382;2023-04-02T06:26:50;93378.47;;;13.24;58.21
7768;BME280;3928;42.626;23.382;2023-04-02T06:29:24;93380.16;;;13.45;56.73
7768;BME280;3928;42.626;23.382;2023-04-02T06:31:54;93384.22;;;13.90;56.17
7768;BME280;3928;42.626;23.382;2023-04-02T06:34:23;93376.03;;;14.01;56.00
7768;BME280;3928;42.626;23.382;2023-04-02T06:36:55;93387.03;;;14.42;55.21
7768;BME280;3928;42.626;23.382;2023-04-02T06:39:25;93371.25;;;14.67;53.65
7768;BME280;3928;42.626;23.382;2023-04-02T06:41:56;93369.72;;;14.82;51.98
7768;BME280;3928;42.626;23.382;2023-04-02T06:44:27;93365.16;;;14.87;51.12
7768;BME280;3928;42.626;23.382;2023-04-02T06:46:57;93387.38;;;15.26;50.83
7768;BME280;3928;42.626;23.382;2023-04-02T06:49:31;93385.19;;;15.53;49.62
7768;BME280;3928;42.626;23.382;2023-04-02T06:52:01;93320.78;;;15.31;49.06
7768;BME280;3928;42.626;23.382;2023-04-02T06:54:30;93383.09;;;15.94;47.99
7768;BME280;3928;42.626;23.382;2023-04-02T06:56:57;93383.81;;;16.13;47.19
7768;BME280;3928;42.626;23.382;2023-04-02T06:59:24;93378.91;;;16.24;46.65
7768;BME280;3928;42.626;23.382;2023-04-02T07:01:53;93379.16;;;16.51;46.57
7768;BME280;3928;42.626;23.382;2023-04-02T07:04:23;93397.56;;;16.78;46.06
7768;BME280;3928;42.626;23.382;2023-04-02T07:06:50;93387.06;;;16.81;45.70
7768;BME280;3928;42.626;23.382;2023-04-02T07:09:17;93405.22;;;17.11;44.52
7768;BME280;3928;42.626;23.382;2023-04-02T07:11:46;93402.69;;;17.41;43.58
7768;BME280;3928;42.626;23.382;2023-04-02T07:14:12;93364.66;;;17.40;42.89
7768;BME280;3928;42.626;23.382;2023-04-02T07:16:40;93397.69;;;17.82;42.26
7768;BME280;3928;42.626;23.382;2023-04-02T07:19:15;93403.56;;;18.00;41.30
7768;BME280;3928;42.626;23.382;2023-04-02T07:21:43;93406.34;;;18.11;41.29
7768;BME280;3928;42.626;23.382;2023-04-02T07:24:10;93398.00;;;18.21;40.72
7768;BME280;3928;42.626;23.382;2023-04-02T07:26:37;93407.00;;;18.29;39.83
7768;BME280;3928;42.626;23.382;2023-04-02T07:29:06;93407.56;;;18.49;39.85
7768;BME280;3928;42.626;23.382;2023-04-02T07:31:33;93416.34;;;18.46;39.59
7768;BME280;3928;42.626;23.382;2023-04-02T07:34:00;93407.63;;;18.61;39.79
7768;BME280;3928;42.626;23.382;2023-04-02T07:36:28;93414.28;;;18.80;39.33
7768;BME280;3928;42.626;23.382;2023-04-02T07:38:55;93417.06;;;18.91;39.47
7768;BME280;3928;42.626;23.382;2023-04-02T07:41:21;93411.81;;;19.05;39.41
7768;BME280;3928;42.626;23.382;2023-04-02T07:43:49;93426.25;;;19.23;37.68
7768;BME280;3928;42.626;23.382;2023-04-02T07:46:17;93420.44;;;19.20;37.58
7768;BME280;3928;42.626;23.382;2023-04-02T07:48:45;93416.06;;;19.20;36.21
7768;BME280;3928;42.626;23.382;2023-04-02T07:51:17;93410.91;;;19.06;36.07
7768;BME280;3928;42.626;23.382;2023-04-02T07:53:44;93416.00;;;19.35;36.80
7768;BME280;3928;42.626;23.382;2023-04-02T07:56:16;93406.81;;;19.56;36.54
7768;BME280;3928;42.626;23.382;2023-04-02T07:58:43;93405.81;;;19.71;35.28
7768;BME280;3928;42.626;23.382;2023-04-02T08:01:19;93407.06;;;19.66;36.02
7768;BME280;3928;42.626;23.382;2023-04-02T08:03:48;93408.28;;;19.60;34.03
7768;BME280;3928;42.626;23.382;2023-04-02T08:06:15;93413.31;;;19.89;35.17
7768;BME280;3928;42.626;23.382;2023-04-02T08:08:42;93412.47;;;19.75;34.91
7768;BME280;3928;42.626;23.382;2023-04-02T08:11:09;93418.31;;;19.66;33.77
7768;BME280;3928;42.626;23.382;2023-04-02T08:13:36;93418.31;;;19.52;33.57
7768;BME280;3928;42.626;23.382;2023-04-02T08:16:04;93415.06;;;19.09;33.39
7768;BME280;3928;42.626;23.382;2023-04-02T08:18:33;93393.28;;;18.97;34.54
7768;BME280;3928;42.626;23.382;2023-04-02T08:21:01;93416.63;;;19.11;33.72
7768;BME280;3928;42.626;23.382;2023-04-02T08:23:28;93408.88;;;18.97;33.41
7768;BME280;3928;42.626;23.382;2023-04-02T08:25:55;93401.34;;;19.07;34.13
7768;BME280;3928;42.626;23.382;2023-04-02T08:28:22;93410.28;;;19.15;33.67
7768;BME280;3928;42.626;23.382;2023-04-02T08:30:49;93408.09;;;19.09;33.57
7768;BME280;3928;42.626;23.382;2023-04-02T08:33:17;93411.09;;;19.30;33.67
7768;BME280;3928;42.626;23.382;2023-04-02T08:35:47;93414.78;;;18.72;34.35
7768;BME280;3928;42.626;23.382;2023-04-02T08:38:16;93426.44;;;18.79;34.43
7768;BME280;3928;42.626;23.382;2023-04-02T08:40:46;93429.25;;;18.19;34.99
7768;BME280;3928;42.626;23.382;2023-04-02T08:43:24;93427.66;;;18.45;34.65
7768;BME280;3928;42.626;23.382;2023-04-02T08:46:03;93425.63;;;18.50;34.88
7768;BME280;3928;42.626;23.382;2023-04-02T08:48:32;93424.72;;;18.65;34.70
7768;BME280;3928;42.626;23.382;2023-04-02T08:51:04;93423.41;;;18.73;34.38
7768;BME280;3928;42.626;23.382;2023-04-02T08:53:34;93431.75;;;18.78;34.00
7768;BME280;3928;42.626;23.382;2023-04-02T08:56:07;93422.47;;;19.15;34.22
7768;BME280;3928;42.626;23.382;2023-04-02T08:58:43;93418.28;;;19.39;32.86
7768;BME280;3928;42.626;23.382;2023-04-02T09:01:20;93396.47;;;19.42;33.20
7768;BME280;3928;42.626;23.382;2023-04-02T09:03:53;93413.09;;;19.66;33.68
7768;BME280;3928;42.626;23.382;2023-04-02T09:06:23;93408.31;;;19.85;33.63
7768;BME280;3928;42.626;23.382;2023-04-02T09:08:53;93413.34;;;20.39;32.67
7768;BME280;3928;42.626;23.382;2023-04-02T09:11:23;93419.38;;;20.78;31.55
7768;BME280;3928;42.626;23.382;2023-04-02T09:13:54;93416.06;;;21.00;31.16
7768;BME280;3928;42.626;23.382;2023-04-02T09:16:33;93407.59;;;20.60;30.38
7768;BME280;3928;42.626;23.382;2023-04-02T09:19:15;93430.09;;;20.86;29.28
7768;BME280;3928;42.626;23.382;2023-04-02T09:21:46;93421.16;;;20.39;29.74
7768;BME280;3928;42.626;23.382;2023-04-02T09:24:18;93422.09;;;20.00;31.57
7768;BME280;3928;42.626;23.382;2023-04-02T09:26:45;93415.03;;;20.15;31.06
7768;BME280;3928;42.626;23.382;2023-04-02T09:29:36;93428.88;;;20.41;31.19
7768;BME280;3928;42.626;23.382;2023-04-02T09:32:36;93431.16;;;20.58;30.08
7768;BME280;3928;42.626;23.382;2023-04-02T09:35:13;93427.22;;;20.53;29.71
7768;BME280;3928;42.626;23.382;2023-04-02T09:37:43;93398.13;;;20.59;29.72
7768;BME280;3928;42.626;23.382;2023-04-02T09:40:19;93413.75;;;20.59;28.62
7768;BME280;3928;42.626;23.382;2023-04-02T09:43:01;93391.81;;;20.87;28.35
7768;BME280;3928;42.626;23.382;2023-04-02T09:45:28;93404.63;;;21.50;28.59
7768;BME280;3928;42.626;23.382;2023-04-02T09:47:56;93418.28;;;21.89;28.30
7768;BME280;3928;42.626;23.382;2023-04-02T09:50:28;93392.78;;;21.10;28.25
7768;BME280;3928;42.626;23.382;2023-04-02T09:52:58;93396.88;;;21.25;28.87
7768;BME280;3928;42.626;23.382;2023-04-02T09:55:26;93390.88;;;21.12;29.10
7768;BME280;3928;42.626;23.382;2023-04-02T09:58:16;93399.28;;;20.91;29.36
7768;BME280;3928;42.626;23.382;2023-04-02T10:00:49;93396.53;;;21.06;29.35
7768;BME280;3928;42.626;23.382;2023-04-02T10:03:22;93404.41;;;21.17;29.40
7768;BME280;3928;42.626;23.382;2023-04-02T10:06:03;93382.81;;;20.91;29.11
7768;BME280;3928;42.626;23.382;2023-04-02T10:08:32;93410.50;;;21.05;28.73
7768;BME280;3928;42.626;23.382;2023-04-02T10:11:02;93405.22;;;20.44;28.31
7768;BME280;3928;42.626;23.382;2023-04-02T10:13:32;93396.69;;;20.17;29.37
7768;BME280;3928;42.626;23.382;2023-04-02T10:16:03;93363.94;;;19.74;29.12
7768;BME280;3928;42.626;23.382;2023-04-02T10:18:42;93394.81;;;20.06;28.73
7768;BME280;3928;42.626;23.382;2023-04-02T10:21:12;93394.41;;;20.25;28.88
7768;BME280;3928;42.626;23.382;2023-04-02T10:23:40;93385.94;;;20.47;28.24
7768;BME280;3928;42.626;23.382;2023-04-02T10:26:18;93392.72;;;20.62;27.90
7768;BME280;3928;42.626;23.382;2023-04-02T10:29:01;93391.63;;;20.77;27.98
7768;BME280;3928;42.626;23.382;2023-04-02T10:31:33;93376.84;;;21.01;27.96
7768;BME280;3928;42.626;23.382;2023-04-02T10:34:09;93387.13;;;21.40;27.22
7768;BME280;3928;42.626;23.382;2023-04-02T10:36:46;93397.94;;;21.22;28.01
7768;BME280;3928;42.626;23.382;2023-04-02T10:39:19;93374.50;;;20.86;27.96
7768;BME280;3928;42.626;23.382;2023-04-02T10:41:51;93396.88;;;21.25;27.59
7768;BME280;3928;42.626;23.382;2023-04-02T10:44:41;93385.81;;;21.34;27.36
7768;BME280;3928;42.626;23.382;2023-04-02T10:47:25;93390.94;;;21.23;27.73
7768;BME280;3928;42.626;23.382;2023-04-02T10:50:10;93387.28;;;21.49;28.07
7768;BME280;3928;42.626;23.382;2023-04-02T10:52:45;93391.47;;;21.28;27.38
7768;BME280;3928;42.626;23.382;2023-04-02T10:55:17;93387.56;;;21.57;28.32
7768;BME280;3928;42.626;23.382;2023-04-02T10:57:46;93384.28;;;21.78;28.69
7768;BME280;3928;42.626;23.382;2023-04-02T11:00:18;93381.88;;;21.64;29.03
7768;BME280;3928;42.626;23.382;2023-04-02T11:02:51;93379.09;;;21.54;29.71
7768;BME280;3928;42.626;23.382;2023-04-02T11:05:27;93376.50;;;21.54;29.34
7768;BME280;3928;42.626;23.382;2023-04-02T11:08:00;93374.94;;;21.51;29.62
7768;BME280;3928;42.626;23.382;2023-04-02T11:10:33;93381.13;;;21.50;29.84
7768;BME280;3928;42.626;23.382;2023-04-02T11:13:07;93377.31;;;21.54;29.20
7768;BME280;3928;42.626;23.382;2023-04-02T11:15:35;93373.56;;;21.58;29.31
7768;BME280;3928;42.626;23.382;2023-04-02T11:18:03;93377.88;;;21.71;29.28
7768;BME280;3928;42.626;23.382;2023-04-02T11:21:04;93376.91;;;21.60;29.71
7768;BME280;3928;42.626;23.382;2023-04-02T11:23:53;93375.47;;;21.56;29.68
7768;BME280;3928;42.626;23.382;2023-04-02T11:26:32;93369.22;;;21.35;30.23
7768;BME280;3928;42.626;23.382;2023-04-02T11:29:20;93376.44;;;21.67;30.96
7768;BME280;3928;42.626;23.382;2023-04-02T11:31:49;93365.19;;;21.77;30.67
7768;BME280;3928;42.626;23.382;2023-04-02T11:37:33;93348.34;;;21.81;29.76
7768;BME280;3928;42.626;23.382;2023-04-02T11:40:02;93346.09;;;21.88;29.77
7768;BME280;3928;42.626;23.382;2023-04-02T11:42:35;93351.75;;;22.06;30.16
7768;BME280;3928;42.626;23.382;2023-04-02T11:48:28;93354.47;;;22.71;28.51
7768;BME280;3928;42.626;23.382;2023-04-02T11:50:55;93365.53;;;22.86;28.24
7768;BME280;3928;42.626;23.382;2023-04-02T11:53:26;93375.38;;;22.94;27.93
7768;BME280;3928;42.626;23.382;2023-04-02T11:56:06;93377.41;;;22.90;28.70
7768;BME280;3928;42.626;23.382;2023-04-02T11:58:49;93361.03;;;22.88;28.04
7768;BME280;3928;42.626;23.382;2023-04-02T12:01:49;93351.63;;;22.86;28.50
7768;BME280;3928;42.626;23.382;2023-04-02T12:04:55;93351.50;;;22.87;28.45
7768;BME280;3928;42.626;23.382;2023-04-02T12:07:45;93353.84;;;23.01;28.43
7768;BME280;3928;42.626;23.382;2023-04-02T12:10:20;93361.53;;;23.14;29.42
7768;BME280;3928;42.626;23.382;2023-04-02T12:12:49;93349.97;;;22.40;28.46
7768;BME280;3928;42.626;23.382;2023-04-02T12:15:44;93352.00;;;21.68;29.04
7768;BME280;3928;42.626;23.382;2023-04-02T12:18:14;93318.19;;;21.88;29.33
7768;BME280;3928;42.626;23.382;2023-04-02T12:20:45;93344.47;;;22.76;29.29
7768;BME280;3928;42.626;23.382;2023-04-02T12:23:17;93320.81;;;23.53;28.21
7768;BME280;3928;42.626;23.382;2023-04-02T12:25:53;93337.31;;;24.58;27.08
7768;BME280;3928;42.626;23.382;2023-04-02T12:28:21;93336.97;;;25.22;25.82
7768;BME280;3928;42.626;23.382;2023-04-02T12:30:50;93347.38;;;25.72;25.29
7768;BME280;3928;42.626;23.382;2023-04-02T12:33:29;93308.63;;;25.74;24.91
7768;BME280;3928;42.626;23.382;2023-04-02T12:35:59;93349.69;;;25.65;24.65
7768;BME280;3928;42.626;23.382;2023-04-02T12:38:27;93346.03;;;25.08;24.97
7768;BME280;3928;42.626;23.382;2023-04-02T12:40:56;93345.00;;;24.90;25.49
7768;BME280;3928;42.626;23.382;2023-04-02T12:43:25;93323.00;;;24.72;24.87
7768;BME280;3928;42.626;23.382;2023-04-02T12:45:56;93346.78;;;24.80;25.11
7768;BME280;3928;42.626;23.382;2023-04-02T12:48:24;93339.84;;;24.39;25.52
7768;BME280;3928;42.626;23.382;2023-04-02T12:50:53;93340.44;;;24.21;26.20
7768;BME280;3928;42.626;23.382;2023-04-02T12:53:23;93341.78;;;24.37;25.69
7768;BME280;3928;42.626;23.382;2023-04-02T12:55:51;93337.81;;;24.42;26.24
7768;BME280;3928;42.626;23.382;2023-04-02T12:58:24;93334.19;;;24.34;26.31
7768;BME280;3928;42.626;23.382;2023-04-02T13:01:02;93329.19;;;24.31;25.95
7768;BME280;3928;42.626;23.382;2023-04-02T13:03:34;93327.13;;;24.34;26.08
7768;BME280;3928;42.626;23.382;2023-04-02T13:06:00;93323.59;;;24.45;25.83
7768;BME280;3928;42.626;23.382;2023-04-02T13:08:29;93301.38;;;24.39;25.92
7768;BME280;3928;42.626;23.382;2023-04-02T13:10:58;93317.94;;;24.19;25.70
7768;BME280;3928;42.626;23.382;2023-04-02T13:13:28;93328.16;;;24.22;26.67
7768;BME280;3928;42.626;23.382;2023-04-02T13:16:03;93314.84;;;24.35;25.56
7768;BME280;3928;42.626;23.382;2023-04-02T13:18:31;93323.44;;;24.77;25.52
7768;BME280;3928;42.626;23.382;2023-04-02T13:21:01;93307.94;;;24.74;25.74
7768;BME280;3928;42.626;23.382;2023-04-02T13:23:34;93315.94;;;25.32;25.62
7768;BME280;3928;42.626;23.382;2023-04-02T13:26:13;93313.31;;;25.51;25.29
7768;BME280;3928;42.626;23.382;2023-04-02T13:28:41;93308.47;;;25.76;24.00
7768;BME280;3928;42.626;23.382;2023-04-02T13:31:14;93301.25;;;26.07;23.37
7768;BME280;3928;42.626;23.382;2023-04-02T13:33:41;93303.75;;;26.36;22.72
7768;BME280;3928;42.626;23.382;2023-04-02T13:36:12;93315.78;;;26.75;23.11
7768;BME280;3928;42.626;23.382;2023-04-02T13:38:39;93314.91;;;26.85;23.23
7768;BME280;3928;42.626;23.382;2023-04-02T13:41:11;93304.50;;;26.65;23.71
7768;BME280;3928;42.626;23.382;2023-04-02T13:43:43;93308.59;;;26.77;23.12
7768;BME280;3928;42.626;23.382;2023-04-02T13:46:17;93323.72;;;27.03;22.18